createdAt,value
2022-10-05T00:00:17.078Z,88.22
2022-10-05T00:01:17.199Z,88.22
2022-10-05T00:02:17.104Z,88.32
2022-10-05T00:03:17.058Z,88.43
2022-10-05T00:04:17.082Z,88.37
2022-10-05T00:05:17.076Z,88.37
2022-10-05T00:06:17.023Z,88.47
2022-10-05T00:07:17.036Z,88.47
2022-10-05T00:08:17.004Z,88.57
2022-10-05T00:09:16.990Z,88.47
2022-10-05T00:10:16.990Z,88.67
2022-10-05T00:11:16.972Z,88.78
2022-10-05T00:12:16.979Z,88.78
2022-10-05T00:13:16.958Z,88.67
2022-10-05T00:14:16.946Z,88.67
2022-10-05T00:15:16.937Z,88.88
2022-10-05T00:16:16.978Z,89.18
2022-10-05T00:17:16.912Z,89.39
2022-10-05T00:18:16.922Z,89.18
2022-10-05T00:19:16.887Z,89.49
2022-10-05T00:20:16.866Z,89.63
2022-10-05T00:21:16.873Z,89.69
2022-10-05T00:22:16.854Z,89.79
2022-10-05T00:23:16.868Z,90.00
2022-10-05T00:24:16.840Z,89.84
2022-10-05T00:25:16.814Z,89.84
2022-10-05T00:26:16.813Z,89.84
2022-10-05T00:27:16.804Z,89.84
2022-10-05T00:28:16.871Z,89.73
2022-10-05T00:29:16.795Z,89.63
2022-10-05T00:30:16.826Z,89.94
2022-10-05T00:31:16.794Z,90.04
2022-10-05T00:32:16.753Z,89.94
2022-10-05T00:33:16.773Z,89.94
2022-10-05T00:34:16.727Z,90.04
2022-10-05T00:35:16.715Z,90.35
2022-10-05T00:36:16.715Z,90.25
2022-10-05T00:37:16.734Z,90.35
2022-10-05T00:38:16.703Z,90.25
2022-10-05T00:39:16.700Z,90.25
2022-10-05T00:40:16.675Z,90.14
2022-10-05T00:41:16.656Z,90.25
2022-10-05T00:42:16.645Z,90.04
2022-10-05T00:43:16.668Z,89.84
2022-10-05T00:44:16.651Z,90.14
2022-10-05T00:45:16.618Z,90.35
2022-10-05T00:46:16.654Z,90.25
2022-10-05T00:47:16.598Z,90.14
2022-10-05T00:48:16.692Z,90.45
2022-10-05T00:49:16.595Z,90.14
2022-10-05T00:50:16.569Z,90.25
2022-10-05T00:51:16.565Z,90.35
2022-10-05T00:52:16.546Z,90.04
2022-10-05T00:53:16.539Z,90.25
2022-10-05T00:54:18.508Z,90.14
2022-10-05T00:55:16.520Z,89.94
2022-10-05T00:56:16.508Z,89.94
2022-10-05T00:57:16.503Z,89.94
2022-10-05T00:58:16.488Z,90.25
2022-10-05T00:59:16.480Z,90.25
2022-10-05T01:00:16.470Z,90.25
2022-10-05T01:01:16.511Z,89.73
2022-10-05T01:02:16.702Z,89.63
2022-10-05T01:03:16.456Z,89.63
2022-10-05T01:04:16.434Z,89.53
2022-10-05T01:05:16.412Z,89.32
2022-10-05T01:06:16.412Z,89.43
2022-10-05T01:07:16.399Z,89.32
2022-10-05T01:08:16.415Z,89.12
2022-10-05T01:09:16.375Z,89.32
2022-10-05T01:10:16.494Z,89.32
2022-10-05T01:11:16.342Z,89.23
2022-10-05T01:12:16.373Z,89.43
2022-10-05T01:13:16.333Z,89.32
2022-10-05T01:14:16.333Z,89.32
2022-10-05T01:15:16.332Z,89.32
2022-10-05T01:16:16.415Z,89.32
2022-10-05T01:17:16.286Z,89.12
2022-10-05T01:18:16.305Z,89.32
2022-10-05T01:19:16.265Z,89.43
2022-10-05T01:20:16.269Z,89.12
2022-10-05T01:21:16.244Z,89.43
2022-10-05T01:22:16.245Z,89.32
2022-10-05T01:23:16.247Z,89.23
2022-10-05T01:24:16.214Z,89.43
2022-10-05T01:25:16.215Z,89.43
2022-10-05T01:26:16.198Z,89.32
2022-10-05T01:27:16.229Z,89.63
2022-10-05T01:28:16.255Z,89.53
2022-10-05T01:29:16.163Z,89.53
2022-10-05T01:30:16.187Z,89.53
2022-10-05T01:31:16.248Z,89.73
2022-10-05T01:32:16.142Z,89.63
2022-10-05T01:33:16.127Z,89.53
2022-10-05T01:34:16.137Z,89.73
2022-10-05T01:35:16.107Z,89.53
2022-10-05T01:36:16.097Z,89.43
2022-10-05T01:37:16.086Z,89.53
2022-10-05T01:38:16.090Z,89.43
2022-10-05T01:39:16.065Z,89.53
2022-10-05T01:40:16.076Z,89.53
2022-10-05T01:41:16.061Z,89.53
2022-10-05T01:42:16.037Z,89.32
2022-10-05T01:43:16.027Z,89.32
2022-10-05T01:44:16.052Z,89.43
2022-10-05T01:45:16.038Z,89.58
2022-10-05T01:46:16.048Z,89.78
2022-10-05T01:47:15.991Z,89.58
2022-10-05T01:48:15.998Z,89.84
2022-10-05T01:49:15.971Z,89.78
2022-10-05T01:50:15.967Z,89.78
2022-10-05T01:51:15.979Z,90.19
2022-10-05T01:52:15.930Z,90.08
2022-10-05T01:53:15.950Z,90.19
2022-10-05T01:54:15.912Z,90.19
2022-10-05T01:55:15.901Z,90.19
2022-10-05T01:56:15.890Z,90.19
2022-10-05T01:57:15.890Z,90.49
2022-10-05T01:58:15.861Z,90.39
2022-10-05T01:59:15.866Z,90.59
2022-10-05T02:00:15.882Z,90.59
2022-10-05T02:01:15.882Z,90.64
2022-10-05T02:02:15.857Z,90.94
2022-10-05T02:03:15.821Z,90.84
2022-10-05T02:04:35.633Z,91.05
2022-10-05T02:05:16.821Z,91.05
2022-10-05T02:06:15.782Z,91.05
2022-10-05T02:07:15.772Z,90.94
2022-10-05T02:08:15.783Z,90.94
2022-10-05T02:09:15.764Z,90.94
2022-10-05T02:10:15.771Z,91.15
2022-10-05T02:11:15.756Z,91.05
2022-10-05T02:12:15.917Z,90.94
2022-10-05T02:13:15.860Z,90.74
2022-10-05T02:14:15.942Z,91.25
2022-10-05T02:15:15.810Z,90.84
2022-10-05T02:16:15.898Z,91.25
2022-10-05T02:17:15.689Z,91.05
2022-10-05T02:18:15.677Z,91.05
2022-10-05T02:19:15.686Z,90.94
2022-10-05T02:20:15.646Z,90.94
2022-10-05T02:21:15.643Z,91.15
2022-10-05T02:22:15.637Z,90.74
2022-10-05T02:23:15.618Z,90.74
2022-10-05T02:24:15.625Z,90.94
2022-10-05T02:25:15.606Z,90.74
2022-10-05T02:26:15.586Z,90.64
2022-10-05T02:27:15.584Z,90.43
2022-10-05T02:28:15.642Z,90.23
2022-10-05T02:29:15.564Z,90.33
2022-10-05T02:30:16.702Z,90.43
2022-10-05T02:31:15.610Z,90.74
2022-10-05T02:32:15.546Z,90.33
2022-10-05T02:33:15.520Z,90.43
2022-10-05T02:34:15.504Z,90.53
2022-10-05T02:35:15.498Z,90.64
2022-10-05T02:36:15.507Z,90.43
2022-10-05T02:37:15.466Z,90.23
2022-10-05T02:38:15.487Z,90.33
2022-10-05T02:39:15.451Z,90.33
2022-10-05T02:40:15.479Z,90.33
2022-10-05T02:41:15.439Z,90.02
2022-10-05T02:42:15.438Z,90.02
2022-10-05T02:43:15.409Z,90.12
2022-10-05T02:44:15.419Z,90.12
2022-10-05T02:45:15.388Z,90.23
2022-10-05T02:46:15.445Z,90.33
2022-10-05T02:47:15.395Z,90.43
2022-10-05T02:48:15.360Z,90.43
2022-10-05T02:49:15.350Z,90.53
2022-10-05T02:50:15.346Z,90.43
2022-10-05T02:51:15.348Z,90.43
2022-10-05T02:52:15.340Z,90.64
2022-10-05T02:53:15.312Z,90.43
2022-10-05T02:54:15.310Z,90.33
2022-10-05T02:55:15.292Z,90.23
2022-10-05T02:56:15.284Z,90.23
2022-10-05T02:57:15.301Z,90.02
2022-10-05T02:58:15.269Z,90.33
2022-10-05T02:59:15.255Z,90.43
2022-10-05T03:00:15.249Z,90.23
2022-10-05T03:01:15.291Z,90.23
2022-10-05T03:02:15.295Z,90.12
2022-10-05T03:03:15.213Z,90.12
2022-10-05T03:04:15.196Z,90.12
2022-10-05T03:05:15.190Z,90.23
2022-10-05T03:06:15.170Z,90.02
2022-10-05T03:07:15.172Z,90.02
2022-10-05T03:08:15.169Z,90.02
2022-10-05T03:09:15.156Z,90.12
2022-10-05T03:10:15.166Z,90.12
2022-10-05T03:11:15.137Z,90.43
2022-10-05T03:12:15.147Z,90.12
2022-10-05T03:13:15.130Z,90.23
2022-10-05T03:14:15.143Z,90.12
2022-10-05T03:15:15.116Z,90.23
2022-10-05T03:16:15.176Z,89.92
2022-10-05T03:17:15.077Z,89.92
2022-10-05T03:18:15.074Z,89.92
2022-10-05T03:19:15.054Z,90.02
2022-10-05T03:20:15.039Z,90.02
2022-10-05T03:21:15.016Z,89.92
2022-10-05T03:22:15.036Z,90.02
2022-10-05T03:23:15.017Z,89.82
2022-10-05T03:24:15.009Z,89.92
2022-10-05T03:25:14.990Z,90.02
2022-10-05T03:26:14.976Z,89.92
2022-10-05T03:27:14.996Z,89.92
2022-10-05T03:28:15.042Z,90.02
2022-10-05T03:29:15.026Z,90.23
2022-10-05T03:30:14.941Z,90.53
2022-10-05T03:31:14.973Z,90.19
2022-10-05T03:32:14.918Z,90.08
2022-10-05T03:33:14.918Z,90.19
2022-10-05T03:34:14.911Z,90.29
2022-10-05T03:35:14.887Z,90.08
2022-10-05T03:36:14.876Z,89.58
2022-10-05T03:37:14.858Z,89.67
2022-10-05T03:38:14.869Z,89.82
2022-10-05T03:39:14.840Z,90.19
2022-10-05T03:40:14.849Z,90.19
2022-10-05T03:41:14.828Z,90.08
2022-10-05T03:42:14.808Z,90.19
2022-10-05T03:43:14.818Z,90.39
2022-10-05T03:44:14.811Z,90.29
2022-10-05T03:45:14.797Z,90.39
2022-10-05T03:46:14.816Z,90.19
2022-10-05T03:47:14.769Z,90.08
2022-10-05T03:48:14.776Z,89.78
2022-10-05T03:49:14.741Z,89.88
2022-10-05T03:50:14.693Z,89.47
2022-10-05T03:51:14.744Z,89.67
2022-10-05T03:52:14.712Z,89.37
2022-10-05T03:53:14.721Z,89.06
2022-10-05T03:54:14.703Z,89.47
2022-10-05T03:55:14.694Z,89.37
2022-10-05T03:56:14.673Z,89.26
2022-10-05T03:57:14.664Z,88.90
2022-10-05T03:58:14.660Z,89.58
2022-10-05T03:59:14.657Z,89.51
2022-10-05T04:00:14.635Z,89.72
2022-10-05T04:01:14.739Z,89.51
2022-10-05T04:02:14.640Z,89.47
2022-10-05T04:03:14.594Z,89.51
2022-10-05T04:04:14.589Z,89.72
2022-10-05T04:05:14.594Z,89.82
2022-10-05T04:06:14.568Z,89.61
2022-10-05T04:07:14.557Z,89.31
2022-10-05T04:08:14.573Z,89.51
2022-10-05T04:09:14.535Z,89.41
2022-10-05T04:10:14.550Z,89.61
2022-10-05T04:11:14.532Z,89.72
2022-10-05T04:12:14.502Z,89.61
2022-10-05T04:13:14.502Z,89.61
2022-10-05T04:14:14.484Z,89.31
2022-10-05T04:15:18.674Z,89.61
2022-10-05T04:16:14.538Z,89.51
2022-10-05T04:17:14.450Z,89.17
2022-10-05T04:18:14.448Z,89.11
2022-10-05T04:19:14.440Z,89.11
2022-10-05T04:20:14.437Z,89.72
2022-10-05T04:21:14.428Z,89.72
2022-10-05T04:22:14.398Z,89.61
2022-10-05T04:23:14.401Z,89.72
2022-10-05T04:24:14.389Z,89.61
2022-10-05T04:25:14.381Z,89.61
2022-10-05T04:26:14.390Z,89.82
2022-10-05T04:27:14.357Z,89.41
2022-10-05T04:28:14.374Z,89.72
2022-10-05T04:29:14.340Z,89.82
2022-10-05T04:30:14.329Z,89.61
2022-10-05T04:31:14.345Z,89.82
2022-10-05T04:32:14.325Z,89.82
2022-10-05T04:33:14.290Z,90.02
2022-10-05T04:34:14.293Z,90.02
2022-10-05T04:35:14.273Z,90.12
2022-10-05T04:36:14.289Z,90.12
2022-10-05T04:37:14.262Z,90.02
2022-10-05T04:38:14.249Z,89.92
2022-10-05T04:39:14.178Z,90.12
2022-10-05T04:40:14.231Z,90.12
2022-10-05T04:41:14.201Z,90.12
2022-10-05T04:42:14.250Z,90.12
2022-10-05T04:43:14.139Z,89.82
2022-10-05T04:44:14.124Z,90.02
2022-10-05T04:45:14.122Z,89.92
2022-10-05T04:46:14.172Z,89.82
2022-10-05T04:47:14.112Z,89.82
2022-10-05T04:48:14.082Z,89.92
2022-10-05T04:49:14.076Z,89.92
2022-10-05T04:50:14.062Z,89.82
2022-10-05T04:51:14.083Z,90.02
2022-10-05T04:52:14.097Z,90.33
2022-10-05T04:53:14.023Z,90.23
2022-10-05T04:54:14.033Z,90.02
2022-10-05T04:55:14.025Z,89.92
2022-10-05T04:56:14.008Z,90.02
2022-10-05T04:57:14.024Z,89.92
2022-10-05T04:58:14.004Z,89.82
2022-10-05T04:59:13.973Z,89.82
2022-10-05T05:00:13.955Z,89.61
2022-10-05T05:01:14.015Z,90.02
2022-10-05T05:02:13.982Z,90.23
2022-10-05T05:03:13.931Z,90.12
2022-10-05T05:04:14.003Z,90.23
2022-10-05T05:05:13.917Z,90.23
2022-10-05T05:06:17.376Z,90.53
2022-10-05T05:07:13.910Z,90.23
2022-10-05T05:08:13.889Z,90.64
2022-10-05T05:09:13.875Z,90.53
2022-10-05T05:10:13.860Z,90.53
2022-10-05T05:11:17.423Z,90.53
2022-10-05T05:12:14.855Z,90.43
2022-10-05T05:13:13.826Z,90.43
2022-10-05T05:14:13.840Z,90.74
2022-10-05T05:15:13.808Z,90.53
2022-10-05T05:16:13.853Z,90.53
2022-10-05T05:17:13.820Z,90.64
2022-10-05T05:18:13.805Z,90.64
2022-10-05T05:19:13.781Z,90.64
2022-10-05T05:20:13.786Z,90.53
2022-10-05T05:21:13.757Z,90.84
2022-10-05T05:22:13.737Z,90.74
2022-10-05T05:23:13.759Z,90.74
2022-10-05T05:24:13.708Z,90.64
2022-10-05T05:25:13.724Z,90.43
2022-10-05T05:26:13.698Z,90.53
2022-10-05T05:27:13.690Z,90.43
2022-10-05T05:28:13.723Z,90.23
2022-10-05T05:29:13.672Z,90.49
2022-10-05T05:35:49.058Z,90.29
2022-10-05T05:36:49.603Z,90.39
2022-10-05T05:37:49.323Z,90.19
2022-10-05T05:38:51.090Z,89.78
2022-10-05T05:39:49.277Z,89.67
2022-10-05T05:40:49.293Z,89.67
2022-10-05T05:41:49.263Z,89.47
2022-10-05T05:42:49.255Z,89.26
2022-10-05T05:43:49.235Z,89.17
2022-10-05T05:44:49.253Z,89.12
2022-10-05T05:45:49.248Z,88.82
2022-10-05T05:47:03.558Z,88.92
2022-10-05T05:47:50.287Z,88.61
2022-10-05T05:48:49.173Z,88.61
2022-10-05T05:49:49.183Z,88.31
2022-10-05T05:50:49.254Z,88.51
2022-10-05T05:51:49.161Z,88.51
2022-10-05T05:52:49.172Z,88.41
2022-10-05T05:53:49.145Z,88.41
2022-10-05T05:54:49.144Z,88.61
2022-10-05T05:55:49.127Z,88.10
2022-10-05T05:56:49.303Z,88.00
2022-10-05T05:57:49.093Z,88.10
2022-10-05T05:58:49.112Z,88.20
2022-10-05T05:59:49.087Z,88.31
2022-10-05T06:00:49.055Z,87.96
2022-10-05T06:01:49.189Z,88.06
2022-10-05T06:02:49.147Z,87.96
2022-10-05T06:03:49.046Z,87.65
2022-10-05T06:04:49.030Z,87.45
2022-10-05T06:05:48.996Z,87.55
2022-10-05T06:06:49.528Z,87.35
2022-10-05T06:07:49.008Z,87.10
2022-10-05T06:08:49.003Z,87.00
2022-10-05T06:09:48.980Z,87.00
2022-10-05T06:10:48.968Z,87.00
2022-10-05T06:11:48.975Z,87.24
2022-10-05T06:12:48.943Z,87.30
2022-10-05T06:13:48.948Z,87.20
2022-10-05T06:14:48.922Z,87.00
2022-10-05T06:15:48.913Z,86.90
2022-10-05T06:16:49.487Z,86.59
2022-10-05T06:17:48.881Z,86.80
2022-10-05T06:18:48.876Z,86.69
2022-10-05T06:19:48.887Z,86.59
2022-10-05T06:20:48.863Z,86.49
2022-10-05T06:21:48.840Z,86.39
2022-10-05T06:22:48.850Z,86.29
2022-10-05T06:23:48.826Z,86.15
2022-10-05T06:24:48.818Z,86.04
2022-10-05T06:25:48.794Z,86.15
2022-10-05T06:26:49.207Z,85.94
2022-10-05T06:27:48.783Z,86.04
2022-10-05T06:28:48.820Z,85.94
2022-10-05T06:29:48.773Z,85.84
2022-10-05T06:30:48.750Z,85.74
2022-10-05T06:31:48.793Z,85.84
2022-10-05T06:32:48.723Z,85.84
2022-10-05T06:33:48.723Z,85.49
2022-10-05T06:34:48.710Z,85.60
2022-10-05T06:35:48.735Z,85.19
2022-10-05T06:36:49.085Z,84.98
2022-10-05T06:37:48.669Z,85.08
2022-10-05T06:38:48.688Z,85.08
2022-10-05T06:39:48.654Z,84.88
2022-10-05T06:40:48.645Z,84.78
2022-10-05T06:41:49.793Z,84.88
2022-10-05T06:42:48.616Z,84.88
2022-10-05T06:43:48.645Z,84.84
2022-10-05T06:44:48.613Z,84.43
2022-10-05T06:45:48.629Z,84.43
2022-10-05T06:46:48.931Z,84.58
2022-10-05T06:47:48.607Z,84.43
2022-10-05T06:48:48.567Z,84.43
2022-10-05T06:49:48.554Z,84.64
2022-10-05T06:50:48.604Z,84.53
2022-10-05T06:51:48.528Z,84.33
2022-10-05T06:52:48.533Z,84.23
2022-10-05T06:53:48.536Z,84.03
2022-10-05T06:54:48.514Z,83.82
2022-10-05T06:55:48.486Z,83.98
2022-10-05T06:56:48.891Z,83.78
2022-10-05T06:57:48.467Z,83.37
2022-10-05T06:58:48.469Z,83.17
2022-10-05T06:59:48.449Z,83.17
2022-10-05T07:00:48.476Z,82.97
2022-10-05T07:01:48.846Z,82.82
2022-10-05T07:02:48.427Z,82.73
2022-10-05T07:03:48.414Z,82.21
2022-10-05T07:04:48.417Z,82.42
2022-10-05T07:05:48.389Z,82.42
2022-10-05T07:06:48.379Z,81.91
2022-10-05T07:07:48.369Z,82.12
2022-10-05T07:08:48.349Z,82.21
2022-10-05T07:09:48.338Z,82.62
2022-10-05T07:10:48.360Z,82.32
2022-10-05T07:11:54.365Z,82.21
2022-10-05T07:12:49.302Z,82.32
2022-10-05T07:13:48.290Z,82.01
2022-10-05T07:14:48.290Z,82.52
2022-10-05T07:15:48.292Z,82.21
2022-10-05T07:16:48.300Z,82.01
2022-10-05T07:17:48.252Z,81.87
2022-10-05T07:18:48.263Z,81.67
2022-10-05T07:19:48.233Z,81.46
2022-10-05T07:20:49.349Z,81.26
2022-10-05T07:21:48.652Z,81.16
2022-10-05T07:22:48.209Z,81.06
2022-10-05T07:23:48.196Z,81.26
2022-10-05T07:24:48.203Z,81.43
2022-10-05T07:25:48.194Z,81.12
2022-10-05T07:26:48.444Z,81.12
2022-10-05T07:27:51.021Z,80.92
2022-10-05T07:28:48.139Z,80.72
2022-10-05T07:29:48.125Z,80.51
2022-10-05T07:30:48.223Z,79.97
2022-10-05T07:31:48.111Z,79.56
2022-10-05T07:32:48.094Z,80.07
2022-10-05T07:33:48.090Z,79.86
2022-10-05T07:34:48.107Z,79.46
2022-10-05T07:35:48.056Z,79.32
2022-10-05T07:36:53.717Z,79.83
2022-10-05T07:37:49.056Z,79.22
2022-10-05T07:38:48.051Z,78.81
2022-10-05T07:40:00.138Z,78.37
2022-10-05T07:40:49.017Z,77.93
2022-10-05T07:41:47.997Z,77.83
2022-10-05T07:42:52.133Z,77.18
2022-10-05T07:44:04.346Z,76.84
2022-10-05T07:44:48.991Z,76.74
2022-10-05T07:45:48.021Z,75.79
2022-10-05T07:46:48.227Z,75.22
2022-10-05T07:47:47.973Z,75.82
2022-10-05T07:48:47.942Z,76.33
2022-10-05T07:49:47.908Z,75.73
2022-10-05T07:50:47.908Z,75.18
2022-10-05T07:51:47.891Z,75.08
2022-10-05T07:52:47.899Z,74.84
2022-10-05T07:53:47.890Z,74.74
2022-10-05T07:54:47.857Z,74.57
2022-10-05T07:55:47.862Z,74.77
2022-10-05T07:56:48.162Z,74.77
2022-10-05T07:57:47.850Z,75.28
2022-10-05T07:58:47.854Z,74.98
2022-10-05T07:59:47.802Z,74.98
2022-10-05T08:00:47.831Z,74.77
2022-10-05T08:01:47.849Z,74.44
2022-10-05T08:02:47.837Z,73.83
2022-10-05T08:03:47.790Z,74.44
2022-10-05T08:04:47.805Z,73.86
2022-10-05T08:05:47.743Z,74.57
2022-10-05T08:06:48.055Z,74.27
2022-10-05T08:07:47.735Z,74.54
2022-10-05T08:08:47.707Z,74.04
2022-10-05T08:09:47.703Z,74.04
2022-10-05T08:10:47.694Z,74.13
2022-10-05T08:11:48.029Z,73.93
2022-10-05T08:12:47.686Z,73.73
2022-10-05T08:13:47.665Z,73.73
2022-10-05T08:14:47.670Z,73.73
2022-10-05T08:15:47.707Z,73.93
2022-10-05T08:16:47.629Z,74.13
2022-10-05T08:17:47.632Z,74.13
2022-10-05T08:18:47.616Z,73.69
2022-10-05T08:19:47.597Z,73.39
2022-10-05T08:20:47.604Z,72.92
2022-10-05T08:21:47.879Z,73.32
2022-10-05T08:22:47.566Z,73.22
2022-10-05T08:23:47.570Z,73.12
2022-10-05T08:24:47.537Z,74.04
2022-10-05T08:25:47.556Z,73.93
2022-10-05T08:26:47.517Z,72.92
2022-10-05T08:27:47.559Z,73.59
2022-10-05T08:28:47.503Z,73.19
2022-10-05T08:29:47.535Z,73.69
2022-10-05T08:30:47.532Z,73.29
2022-10-05T08:31:47.644Z,73.80
2022-10-05T08:32:47.461Z,73.39
2022-10-05T08:33:47.450Z,73.29
2022-10-05T08:34:47.443Z,73.29
2022-10-05T08:35:47.442Z,73.19
2022-10-05T08:36:50.354Z,73.29
2022-10-05T08:37:48.409Z,73.80
2022-10-05T08:38:47.404Z,73.69
2022-10-05T08:39:47.380Z,73.59
2022-10-05T08:40:47.382Z,73.49
2022-10-05T08:41:47.590Z,73.49
2022-10-05T08:42:47.353Z,73.29
2022-10-05T08:43:47.343Z,73.80
2022-10-05T08:44:47.336Z,73.49
2022-10-05T08:45:47.372Z,73.59
2022-10-05T08:46:47.315Z,74.00
2022-10-05T08:47:47.293Z,73.66
2022-10-05T08:48:47.298Z,73.46
2022-10-05T08:49:47.273Z,73.05
2022-10-05T08:50:47.293Z,73.36
2022-10-05T08:51:47.461Z,73.02
2022-10-05T08:52:47.245Z,72.21
2022-10-05T08:53:47.247Z,72.51
2022-10-05T08:54:47.215Z,72.31
2022-10-05T08:55:47.314Z,72.21
2022-10-05T08:56:47.222Z,72.01
2022-10-05T08:57:47.194Z,71.91
2022-10-05T08:58:47.235Z,72.11
2022-10-05T08:59:47.187Z,71.91
2022-10-05T09:00:47.155Z,71.70
2022-10-05T09:01:47.472Z,72.11
2022-10-05T09:02:47.212Z,71.77
2022-10-05T09:03:47.139Z,71.77
2022-10-05T09:04:47.114Z,71.80
2022-10-05T09:05:49.096Z,72.28
2022-10-05T09:06:47.147Z,72.17
2022-10-05T09:07:47.097Z,72.08
2022-10-05T09:08:47.090Z,71.97
2022-10-05T09:09:47.072Z,72.08
2022-10-05T09:10:47.059Z,71.77
2022-10-05T09:11:47.364Z,71.57
2022-10-05T09:12:47.049Z,71.67
2022-10-05T09:13:47.021Z,71.87
2022-10-05T09:14:56.620Z,71.37
2022-10-05T09:15:48.084Z,71.64
2022-10-05T09:16:46.999Z,71.64
2022-10-05T09:17:46.999Z,71.53
2022-10-05T09:18:46.970Z,71.03
2022-10-05T09:19:47.037Z,71.20
2022-10-05T09:20:46.943Z,70.89
2022-10-05T09:21:47.228Z,71.03
2022-10-05T09:22:46.943Z,71.33
2022-10-05T09:23:46.982Z,71.23
2022-10-05T09:24:48.661Z,71.13
2022-10-05T09:25:46.902Z,71.44
2022-10-05T09:26:46.882Z,71.44
2022-10-05T09:27:46.881Z,71.70
2022-10-05T09:28:46.905Z,71.50
2022-10-05T09:29:46.851Z,71.23
2022-10-05T09:30:46.914Z,71.20
2022-10-05T09:31:47.132Z,71.60
2022-10-05T09:32:46.842Z,71.53
2022-10-05T09:33:46.805Z,71.23
2022-10-05T09:34:46.794Z,71.70
2022-10-05T09:35:46.777Z,71.44
2022-10-05T09:36:46.791Z,71.40
2022-10-05T09:37:46.777Z,71.30
2022-10-05T09:38:46.765Z,70.89
2022-10-05T09:39:46.746Z,70.69
2022-10-05T09:40:46.739Z,71.10
2022-10-05T09:41:47.015Z,70.79
2022-10-05T09:42:46.716Z,70.89
2022-10-05T09:43:46.709Z,71.00
2022-10-05T09:44:46.695Z,70.73
2022-10-05T09:45:46.698Z,71.00
2022-10-05T09:46:46.699Z,70.79
2022-10-05T09:47:46.668Z,70.59
2022-10-05T09:48:46.648Z,70.29
2022-10-05T09:49:46.645Z,70.19
2022-10-05T09:50:46.648Z,70.49
2022-10-05T09:51:46.907Z,70.29
2022-10-05T09:52:46.624Z,70.39
2022-10-05T09:53:46.599Z,70.09
2022-10-05T09:54:46.589Z,69.98
2022-10-05T09:55:46.601Z,70.59
2022-10-05T09:56:46.875Z,70.29
2022-10-05T09:57:49.288Z,70.09
2022-10-05T09:58:47.550Z,69.95
2022-10-05T09:59:46.535Z,69.65
2022-10-05T10:00:51.530Z,69.95
2022-10-05T10:01:47.904Z,69.85
2022-10-05T10:02:46.646Z,69.89
2022-10-05T10:03:46.493Z,70.39
2022-10-05T10:04:46.483Z,70.49
2022-10-05T10:05:46.476Z,70.79
2022-10-05T10:06:46.565Z,71.00
2022-10-05T10:07:46.445Z,70.76
2022-10-05T10:08:46.433Z,70.59
2022-10-05T10:09:46.423Z,70.36
2022-10-05T10:10:46.427Z,70.89
2022-10-05T10:11:46.687Z,70.56
2022-10-05T10:12:46.396Z,70.79
2022-10-05T10:13:46.387Z,70.89
2022-10-05T10:14:46.380Z,70.89
2022-10-05T10:15:46.465Z,70.69
2022-10-05T10:16:46.376Z,71.10
2022-10-05T10:17:46.353Z,71.33
2022-10-05T10:18:46.338Z,71.30
2022-10-05T10:19:46.340Z,71.30
2022-10-05T10:20:46.329Z,71.30
2022-10-05T10:21:46.592Z,71.30
2022-10-05T10:22:46.287Z,71.53
2022-10-05T10:23:46.296Z,71.73
2022-10-05T10:24:46.270Z,72.14
2022-10-05T10:25:46.258Z,72.24
2022-10-05T10:26:46.249Z,72.00
2022-10-05T10:27:50.304Z,72.21
2022-10-05T10:28:47.240Z,72.51
2022-10-05T10:29:46.221Z,71.80
2022-10-05T10:30:46.249Z,71.60
2022-10-05T10:31:46.510Z,71.50
2022-10-05T10:32:46.181Z,71.70
2022-10-05T10:33:46.171Z,71.80
2022-10-05T10:34:46.188Z,71.80
2022-10-05T10:35:46.148Z,71.97
2022-10-05T10:36:46.425Z,71.37
2022-10-05T10:37:46.130Z,71.67
2022-10-05T10:38:46.113Z,71.87
2022-10-05T10:39:46.117Z,71.47
2022-10-05T10:40:46.102Z,71.97
2022-10-05T10:41:46.093Z,71.47
2022-10-05T10:42:46.067Z,71.87
2022-10-05T10:43:46.053Z,71.47
2022-10-05T10:44:46.068Z,71.97
2022-10-05T10:45:46.041Z,72.27
2022-10-05T10:46:46.518Z,72.38
2022-10-05T10:47:46.021Z,72.07
2022-10-05T10:48:46.024Z,72.31
2022-10-05T10:49:46.016Z,72.21
2022-10-05T10:50:45.985Z,72.51
2022-10-05T10:51:45.984Z,72.71
2022-10-05T10:52:45.963Z,73.02
2022-10-05T10:53:45.949Z,72.61
2022-10-05T10:54:45.968Z,72.91
2022-10-05T10:55:45.936Z,73.11
2022-10-05T10:56:46.314Z,73.93
2022-10-05T10:57:45.917Z,72.98
2022-10-05T10:58:45.927Z,72.68
2022-10-05T10:59:45.895Z,72.38
2022-10-05T11:00:45.872Z,71.73
2022-10-05T11:01:46.436Z,71.10
2022-10-05T11:02:45.910Z,71.10
2022-10-05T11:03:45.866Z,71.20
2022-10-05T11:04:45.857Z,71.91
2022-10-05T11:05:48.681Z,71.60
2022-10-05T11:06:45.809Z,72.11
2022-10-05T11:07:45.810Z,71.40
2022-10-05T11:08:45.822Z,71.30
2022-10-05T11:09:45.793Z,71.00
2022-10-05T11:10:45.770Z,71.94
2022-10-05T11:11:45.991Z,71.64
2022-10-05T11:12:45.783Z,71.84
2022-10-05T11:13:45.776Z,71.94
2022-10-05T11:14:45.721Z,71.80
2022-10-05T11:15:45.824Z,71.60
2022-10-05T11:16:45.983Z,70.97
2022-10-05T11:17:45.714Z,70.46
2022-10-05T11:18:45.820Z,70.32
2022-10-05T11:20:03.266Z,69.69
2022-10-05T11:20:46.720Z,69.59
2022-10-05T11:21:45.680Z,69.35
2022-10-05T11:22:45.657Z,68.82
2022-10-05T11:23:45.632Z,68.41
2022-10-05T11:24:45.641Z,68.11
2022-10-05T11:25:45.646Z,68.71
2022-10-05T11:26:45.968Z,68.31
2022-10-05T11:27:45.638Z,68.51
2022-10-05T11:28:45.577Z,68.85
2022-10-05T11:29:45.574Z,69.25
2022-10-05T11:30:48.829Z,69.76
2022-10-05T11:31:47.119Z,70.16
2022-10-05T11:32:45.567Z,69.15
2022-10-05T11:33:45.526Z,69.02
2022-10-05T11:34:45.543Z,68.78
2022-10-05T11:35:45.499Z,67.94
2022-10-05T11:36:45.520Z,67.51
2022-10-05T11:37:45.469Z,66.38
2022-10-05T11:38:45.505Z,66.28
2022-10-05T11:39:45.457Z,65.97
2022-10-05T11:40:45.454Z,65.34
2022-10-05T11:41:45.793Z,65.61
2022-10-05T11:42:45.422Z,64.78
2022-10-05T11:43:45.439Z,64.40
2022-10-05T11:44:45.422Z,64.40
2022-10-05T11:45:45.401Z,65.31
2022-10-05T11:46:45.423Z,65.21
2022-10-05T11:47:45.406Z,65.34
2022-10-05T11:48:45.466Z,65.77
2022-10-05T11:49:45.354Z,66.08
2022-10-05T11:50:45.368Z,66.28
2022-10-05T11:51:45.356Z,66.08
2022-10-05T11:52:45.333Z,66.35
2022-10-05T11:53:45.313Z,65.94
2022-10-05T11:55:09.434Z,66.08
2022-10-05T11:55:46.303Z,66.81
2022-10-05T11:56:45.762Z,67.21
2022-10-05T11:57:45.288Z,67.55
2022-10-05T11:58:45.245Z,67.88
2022-10-05T11:59:45.273Z,68.18
2022-10-05T12:00:45.233Z,68.78
2022-10-05T12:01:45.244Z,68.98
2022-10-05T12:02:45.299Z,68.82
2022-10-05T12:03:45.271Z,69.22
2022-10-05T12:04:45.185Z,69.42
2022-10-05T12:05:45.206Z,69.62
2022-10-05T12:06:45.172Z,69.42
2022-10-05T12:07:45.162Z,69.72
2022-10-05T12:08:45.148Z,70.23
2022-10-05T12:09:45.152Z,69.62
2022-10-05T12:10:45.138Z,69.92
2022-10-05T12:11:45.120Z,69.92
2022-10-05T12:12:45.118Z,69.82
2022-10-05T12:13:45.113Z,69.62
2022-10-05T12:14:45.081Z,69.62
2022-10-05T12:15:45.140Z,69.09
2022-10-05T12:16:45.061Z,68.65
2022-10-05T12:17:45.049Z,67.82
2022-10-05T12:18:45.062Z,67.28
2022-10-05T12:19:45.051Z,67.38
2022-10-05T12:20:45.062Z,66.95
2022-10-05T12:21:45.008Z,66.44
2022-10-05T12:22:44.993Z,66.31
2022-10-05T12:23:44.991Z,65.81
2022-10-05T12:24:44.987Z,65.78
2022-10-05T12:25:44.981Z,65.38
2022-10-05T12:26:44.974Z,65.48
2022-10-05T12:27:44.947Z,65.15
2022-10-05T12:28:44.992Z,64.84
2022-10-05T12:29:44.962Z,64.54
2022-10-05T12:30:44.914Z,64.54
2022-10-05T12:31:44.932Z,64.25
2022-10-05T12:32:44.897Z,64.45
2022-10-05T12:33:44.898Z,64.72
2022-10-05T12:34:44.880Z,64.51
2022-10-05T12:35:48.267Z,64.22
2022-10-05T12:37:03.492Z,64.31
2022-10-05T12:37:45.867Z,63.92
2022-10-05T12:38:44.830Z,63.51
2022-10-05T12:39:44.845Z,63.81
2022-10-05T12:40:44.814Z,64.25
2022-10-05T12:41:44.814Z,64.42
2022-10-05T12:42:44.788Z,64.54
2022-10-05T12:43:44.801Z,64.15
2022-10-05T12:44:44.767Z,63.84
2022-10-05T12:45:44.843Z,63.14
2022-10-05T12:46:44.755Z,63.04
2022-10-05T12:47:44.738Z,61.64
2022-10-05T12:48:44.751Z,62.07
2022-10-05T12:49:44.731Z,62.07
2022-10-05T12:50:44.719Z,62.47
2022-10-05T12:51:44.713Z,63.07
2022-10-05T12:52:44.691Z,62.37
2022-10-05T12:53:44.693Z,62.57
2022-10-05T12:54:44.674Z,62.74
2022-10-05T12:55:44.673Z,62.64
2022-10-05T12:56:44.671Z,62.24
2022-10-05T12:57:44.683Z,63.45